Time;durP1;ratioP1;P1;durP2;ratioP2;P2;SDS_P1;SDS_P2;PMS_P1;PMS_P2;Temp;Humidity;BMP_temperature;BMP_pressure;BME280_temperature;BME280_humidity;BME280_pressure;Samples;Min_cycle;Max_cycle;Signal;HPM_P1;HPM_P2
2022/09/16 00:00:52;;;;;;;38.13;13.63;;;;;;;-145.69;100.00;71400.41;5075649;28;20203;-76
2022/09/16 00:03:18;;;;;;;37.43;12.83;;;;;;;-145.69;100.00;71392.44;5095987;28;20233;-75
2022/09/16 00:05:47;;;;;;;29.67;12.13;;;;;;;-145.69;100.00;71396.44;5095891;28;20205;-75
2022/09/16 00:08:15;;;;;;;24.27;11.63;;;;;;;-145.69;100.00;71390.47;5095791;28;20656;-75
2022/09/16 00:10:42;;;;;;;31.23;12.57;;;;;;;-145.69;100.00;71378.50;5095608;28;20277;-76
2022/09/16 00:13:11;;;;;;;31.00;12.47;;;;;;;-145.69;100.00;71372.53;5091340;28;20195;-76
2022/09/16 00:15:37;;;;;;;30.50;11.57;;;;;;;-145.69;100.00;71374.53;5075898;28;20198;-76
2022/09/16 00:18:04;;;;;;;32.73;12.07;;;;;;;-145.69;100.00;71370.56;5075135;28;20226;-75
2022/09/16 00:20:31;;;;;;;25.73;11.77;;;;;;;-145.69;100.00;71362.59;5075542;28;20207;-75
2022/09/16 00:22:57;;;;;;;25.33;11.53;;;;;;;-145.69;100.00;71368.56;5075775;28;20198;-75
2022/09/16 00:25:23;;;;;;;29.17;11.20;;;;;;;-145.69;100.00;71362.59;5080974;28;20201;-76
2022/09/16 00:27:50;;;;;;;23.43;10.93;;;;;;;-145.69;100.00;71358.63;5095615;28;20660;-75
2022/09/16 00:30:18;;;;;;;27.37;11.57;;;;;;;-145.69;100.00;71354.63;5095927;28;20526;-75
2022/09/16 00:32:44;;;;;;;24.97;10.53;;;;;;;-145.69;100.00;71358.63;5095789;28;20198;-75
2022/09/16 00:35:11;;;;;;;25.83;11.23;;;;;;;-145.69;100.00;71358.63;5093907;28;20194;-75
2022/09/16 00:37:37;;;;;;;37.83;11.87;;;;;;;-145.69;100.00;71350.66;5075245;28;20199;-75
2022/09/16 00:40:05;;;;;;;28.03;12.00;;;;;;;-145.69;100.00;71340.72;5074448;28;20226;-75
2022/09/16 00:42:37;;;;;;;27.67;11.73;;;;;;;-145.69;100.00;71332.75;5075308;28;20311;-75
2022/09/16 00:45:06;;;;;;;25.50;11.70;;;;;;;-145.69;100.00;71330.75;5074828;28;20199;-75
2022/09/16 00:47:40;;;;;;;32.37;12.33;;;;;;;-145.69;100.00;71336.72;5066832;28;20203;-75
2022/09/16 00:50:10;;;;;;;23.37;11.23;;;;;;;-145.69;100.00;71326.78;5074700;28;20227;-75
2022/09/16 00:52:37;;;;;;;26.80;11.27;;;;;;;-145.69;100.00;71324.78;5074965;28;20199;-75
2022/09/16 00:55:08;;;;;;;24.17;10.97;;;;;;;-145.69;100.00;71332.75;5074471;28;20222;-75
2022/09/16 00:57:35;;;;;;;22.20;10.37;;;;;;;-145.69;100.00;71338.72;5077820;28;20192;-76
2022/09/16 01:00:04;;;;;;;22.90;9.37;;;;;;;-145.69;100.00;71342.69;5058985;28;20234;-76
2022/09/16 01:02:31;;;;;;;21.70;9.73;;;;;;;-145.69;100.00;71344.69;5054227;28;20558;-75
2022/09/16 01:05:02;;;;;;;25.63;10.73;;;;;;;-145.69;100.00;71346.69;5054563;28;20218;-75
2022/09/16 01:07:33;;;;;;;24.93;9.43;;;;;;;-145.69;100.00;71354.63;5054622;28;20676;-75
2022/09/16 01:10:00;;;;;;;23.87;9.93;;;;;;;-145.69;100.00;71360.59;5064065;28;20195;-75
2022/09/16 01:12:29;;;;;;;24.53;10.77;;;;;;;-145.69;100.00;71358.63;5094804;28;20206;-75
2022/09/16 01:14:57;;;;;;;25.57;9.63;;;;;;;-145.69;100.00;71368.56;5094789;28;20205;-75
2022/09/16 01:17:58;;;;;;;24.10;9.73;;;;;;;-145.69;100.00;71380.50;5094577;28;20277;-75
2022/09/16 01:20:45;;;;;;;29.83;15.02;;;;;;;-145.69;100.00;71378.50;5093384;28;20811;-75
2022/09/16 01:23:34;;;;;;;26.17;11.40;;;;;;;-145.69;100.00;71388.47;5078408;28;20198;-76
2022/09/16 01:26:18;;;;;;;19.70;9.27;;;;;;;-145.69;100.00;71398.41;5074264;28;20246;-76
2022/09/16 01:29:23;;;;;;;42.73;14.47;;;;;;;-145.69;100.00;71362.59;5075566;28;20199;-75
2022/09/16 01:31:57;;;;;;;43.93;15.33;;;;;;;-145.69;100.00;71350.66;5073277;28;20198;-76
2022/09/16 01:34:33;;;;;;;36.67;14.67;;;;;;;-145.69;100.00;71338.72;5074563;28;20197;-76
2022/09/16 01:37:06;;;;;;;32.10;13.23;;;;;;;-145.69;100.00;71336.72;5074322;28;20209;-76
2022/09/16 01:39:45;;;;;;;33.23;13.60;;;;;;;-145.69;100.00;71342.69;5074144;28;20231;-76
2022/09/16 01:42:22;;;;;;;32.97;13.87;;;;;;;-145.69;100.00;71354.63;5073820;28;20209;-76
2022/09/16 01:44:57;;;;;;;27.13;11.07;;;;;;;-145.69;100.00;71352.66;5074155;28;20558;-75
2022/09/16 01:47:33;;;;;;;31.57;12.03;;;;;;;-145.69;100.00;71364.59;5090840;28;20233;-76
2022/09/16 01:50:05;;;;;;;30.87;12.47;;;;;;;-145.69;100.00;71362.59;5093069;28;20596;-75
2022/09/16 01:52:40;;;;;;;36.97;13.33;;;;;;;-145.69;100.00;71366.56;5093555;28;20206;-76
2022/09/16 01:55:10;;;;;;;27.23;10.70;;;;;;;-145.69;100.00;71390.47;5092255;28;20194;-76
2022/09/16 01:57:40;;;;;;;21.77;10.27;;;;;;;-145.69;100.00;71392.44;5093628;28;20661;-76
2022/09/16 02:00:10;;;;;;;34.57;13.40;;;;;;;-145.69;100.00;71386.47;5093917;28;20229;-75
2022/09/16 02:02:42;;;;;;;36.37;14.80;;;;;;;-145.69;100.00;71382.50;5094121;28;20206;-75
2022/09/16 02:05:14;;;;;;;36.90;14.77;;;;;;;-145.69;100.00;71386.47;5085399;28;20195;-76
2022/09/16 02:07:47;;;;;;;52.43;17.73;;;;;;;-145.69;100.00;71358.63;5072972;28;20679;-76
2022/09/16 02:10:22;;;;;;;39.60;14.80;;;;;;;-145.69;100.00;71366.56;5074300;28;20684;-75
2022/09/16 02:12:50;;;;;;;37.43;13.73;;;;;;;-145.69;100.00;71376.53;5073513;28;20202;-75
2022/09/16 02:15:21;;;;;;;39.40;15.30;;;;;;;-145.69;100.00;71378.50;5073401;28;20199;-75
2022/09/16 02:17:54;;;;;;;40.37;14.77;;;;;;;-145.69;100.00;71388.47;5085350;28;20684;-75
2022/09/16 02:20:26;;;;;;;40.53;15.10;;;;;;;-145.69;100.00;71390.47;5093441;28;20237;-76
2022/09/16 02:22:58;;;;;;;26.90;12.60;;;;;;;-145.69;100.00;71392.44;5093701;28;20205;-76
2022/09/16 02:25:27;;;;;;;42.53;15.10;;;;;;;-145.69;100.00;71396.44;5093558;28;20198;-75
2022/09/16 02:27:54;;;;;;;47.10;18.30;;;;;;;-145.69;100.00;71378.50;5093456;28;20210;-76
2022/09/16 02:30:22;;;;;;;43.20;15.47;;;;;;;-145.69;100.00;71356.63;5078403;28;20195;-76
2022/09/16 02:32:55;;;;;;;32.93;14.50;;;;;;;-145.69;100.00;71358.63;5073231;28;20225;-76
2022/09/16 02:35:23;;;;;;;46.63;17.27;;;;;;;-145.69;100.00;71352.66;5072733;28;20210;-76
2022/09/16 02:37:53;;;;;;;44.70;17.73;;;;;;;-145.69;100.00;71332.75;5073366;28;20241;-76
2022/09/16 02:40:24;;;;;;;60.07;22.30;;;;;;;-145.69;100.00;71302.91;5073172;28;20645;-76
2022/09/16 02:42:52;;;;;;;69.10;24.10;;;;;;;-145.69;100.00;71290.97;5089140;28;20202;-74
2022/09/16 02:45:20;;;;;;;69.90;24.23;;;;;;;-145.69;100.00;71273.06;5093357;28;20229;-76
2022/09/16 02:47:54;;;;;;;62.07;22.30;;;;;;;-145.69;100.00;71285.00;5089959;28;20194;-76
2022/09/16 02:50:28;;;;;;;51.93;20.10;;;;;;;-145.69;100.00;71285.00;5072535;28;20253;-76
2022/09/16 02:52:59;;;;;;;58.73;20.57;;;;;;;-145.69;100.00;71286.97;5085791;28;20200;-76
2022/09/16 02:55:37;;;;;;;37.20;13.23;;;;;;;-145.69;100.00;71314.84;5053237;28;20207;-76
2022/09/16 02:58:04;;;;;;;33.47;14.40;;;;;;;-145.69;100.00;71320.81;5069229;28;20207;-76
2022/09/16 03:00:33;;;;;;;25.23;12.27;;;;;;;-145.69;100.00;71334.75;5072870;28;20262;-76
2022/09/16 03:03:01;;;;;;;39.47;15.93;;;;;;;-145.69;100.00;71334.75;5089732;28;20197;-76
2022/09/16 03:05:28;;;;;;;37.60;15.20;;;;;;;-145.69;100.00;71334.75;5093044;28;20206;-76
2022/09/16 03:07:55;;;;;;;38.90;14.10;;;;;;;-145.69;100.00;71336.72;5092771;28;20221;-76
2022/09/16 03:10:24;;;;;;;53.37;17.67;;;;;;;-145.69;100.00;71322.81;5092621;28;20201;-76
2022/09/16 03:13:01;;;;;;;37.47;14.90;;;;;;;-145.69;100.00;71318.81;5091538;28;20676;-76
2022/09/16 03:15:48;;;;;;;41.22;16.02;;;;;;;-145.69;100.00;71320.81;5072471;28;20447;-76
2022/09/16 03:18:52;;;;;;;37.47;15.83;;;;;;;-145.69;100.00;71306.88;5072532;28;20657;-75
2022/09/16 03:21:27;;;;;;;48.30;17.57;;;;;;;-145.69;100.00;71288.97;5072469;28;20657;-75
2022/09/16 03:24:06;;;;;;;55.53;19.33;;;;;;;-145.69;100.00;71275.03;5072539;28;20206;-75
2022/09/16 03:26:37;;;;;;;40.57;16.07;;;;;;;-145.69;100.00;71273.06;5086923;28;20272;-75
2022/09/16 03:29:12;;;;;;;47.17;16.03;;;;;;;-145.69;100.00;71279.03;5092667;28;20202;-76
2022/09/16 03:31:47;;;;;;;50.33;17.20;;;;;;;-145.69;100.00;71271.06;5092843;28;20209;-76
2022/09/16 03:34:20;;;;;;;55.33;19.17;;;;;;;-145.69;100.00;71255.16;5087323;28;20190;-76
2022/09/16 03:36:52;;;;;;;59.27;21.17;;;;;;;-145.69;100.00;71249.19;5072131;28;20203;-76
2022/09/16 03:39:21;;;;;;;49.00;18.33;;;;;;;-145.69;100.00;71247.19;5072364;28;20301;-75
2022/09/16 03:41:47;;;;;;;56.33;19.83;;;;;;;-145.69;100.00;71239.22;5073352;28;20226;-76
2022/09/16 03:44:14;;;;;;;63.70;21.97;;;;;;;-145.69;100.00;71227.28;5072414;28;20194;-76
2022/09/16 03:46:40;;;;;;;49.95;22.67;;;;;;;-145.69;100.00;71227.28;5071226;28;20537;-76
2022/09/16 03:49:07;;;;;;;50.65;17.92;;;;;;;-145.69;100.00;71227.28;5072024;28;20238;-76
2022/09/16 03:51:35;;;;;;;42.97;17.83;;;;;;;-145.69;100.00;71227.28;5072109;28;20200;-76
2022/09/16 03:54:01;;;;;;;51.93;18.67;;;;;;;-145.69;100.00;71215.34;5088575;28;20614;-75
2022/09/16 03:56:28;;;;;;;45.37;16.33;;;;;;;-145.69;100.00;71217.34;5092619;28;20199;-76
2022/09/16 03:58:54;;;;;;;51.33;17.90;;;;;;;-145.69;100.00;71211.38;5092331;28;20198;-75
2022/09/16 04:01:20;;;;;;;39.80;15.70;;;;;;;-145.69;100.00;71221.31;5092534;28;20201;-75
2022/09/16 04:03:47;;;;;;;43.53;14.63;;;;;;;-145.69;100.00;71225.31;5092264;28;20201;-76
2022/09/16 04:06:13;;;;;;;38.63;14.83;;;;;;;-145.69;100.00;71231.28;5074071;28;20191;-76
2022/09/16 04:08:43;;;;;;;31.47;13.13;;;;;;;-145.69;100.00;71235.25;5072324;28;20205;-76
2022/09/16 04:11:09;;;;;;;37.27;15.57;;;;;;;-145.69;100.00;71231.28;5072275;28;20203;-75
2022/09/16 04:13:36;;;;;;;45.10;16.93;;;;;;;-145.69;100.00;71225.31;5072281;28;20203;-75
2022/09/16 04:16:04;;;;;;;40.97;14.80;;;;;;;-145.69;100.00;71223.31;5075794;28;20209;-76
2022/09/16 04:18:30;;;;;;;39.23;15.63;;;;;;;-145.69;100.00;71221.31;5096060;28;20198;-75
2022/09/16 04:20:57;;;;;;;47.87;16.17;;;;;;;-145.69;100.00;71213.38;5095432;28;20682;-75
2022/09/16 04:23:24;;;;;;;54.93;15.97;;;;;;;-145.69;100.00;71207.38;5095663;28;20225;-75
2022/09/16 04:25:55;;;;;;;53.33;18.23;;;;;;;-145.69;100.00;71193.47;5095860;28;20252;-75
2022/09/16 04:28:21;;;;;;;58.27;19.07;;;;;;;-145.69;100.00;71181.53;5094474;28;20202;-75
2022/09/16 04:30:48;;;;;;;46.70;17.37;;;;;;;-145.69;100.00;71171.56;5075190;28;20564;-75
2022/09/16 04:33:14;;;;;;;45.37;18.23;;;;;;;-145.69;100.00;71175.56;5075253;28;20205;-76
2022/09/16 04:35:41;;;;;;;49.97;18.13;;;;;;;-145.69;100.00;71181.53;5075248;28;20271;-76
2022/09/16 04:38:07;;;;;;;49.83;16.50;;;;;;;-145.69;100.00;71179.53;5075526;28;20203;-75
2022/09/16 04:40:34;;;;;;;37.93;14.60;;;;;;;-145.69;100.00;71177.53;5079280;28;20225;-76
2022/09/16 04:43:02;;;;;;;46.67;16.87;;;;;;;-145.69;100.00;71177.53;5093170;28;20198;-75
2022/09/16 04:45:28;;;;;;;42.17;15.37;;;;;;;-145.69;100.00;71175.56;5093419;28;20675;-76
2022/09/16 04:47:56;;;;;;;44.23;15.40;;;;;;;-145.69;100.00;71177.53;5074519;28;20203;-75
2022/09/16 04:50:22;;;;;;;31.77;13.87;;;;;;;-145.69;100.00;71171.56;5061079;28;20234;-75
2022/09/16 04:52:50;;;;;;;41.83;15.70;;;;;;;-145.69;100.00;71171.56;5078426;28;20196;-76
2022/09/16 04:55:17;;;;;;;35.47;15.23;;;;;;;-145.69;100.00;71177.53;5055294;28;20204;-75
2022/09/16 04:57:44;;;;;;;37.43;14.73;;;;;;;-145.69;100.00;71179.53;5054634;28;20207;-75
2022/09/16 05:00:13;;;;;;;36.30;13.73;;;;;;;-145.69;100.00;71183.50;5054648;28;20749;-75
2022/09/16 05:02:39;;;;;;;34.17;14.30;;;;;;;-145.69;100.00;71185.50;5054861;28;20503;-75
2022/09/16 05:05:07;;;;;;;42.50;15.38;;;;;;;-145.69;100.00;71193.47;5082387;28;20206;-76
2022/09/16 05:07:33;;;;;;;43.60;15.33;;;;;;;-145.69;100.00;71187.50;5095048;28;20202;-76
2022/09/16 05:10:00;;;;;;;39.78;14.75;;;;;;;-145.69;100.00;71179.53;5094460;28;20691;-75
2022/09/16 05:12:26;;;;;;;44.05;15.77;;;;;;;-145.69;100.00;71179.53;5094977;28;20198;-75
2022/09/16 05:14:53;;;;;;;44.77;16.23;;;;;;;-145.69;100.00;71173.56;5094764;28;20202;-75
2022/09/16 05:17:20;;;;;;;43.43;16.37;;;;;;;-145.69;100.00;71167.59;5077952;28;20276;-75
2022/09/16 05:19:47;;;;;;;42.03;15.50;;;;;;;-145.69;100.00;71159.63;5074577;28;20222;-76
2022/09/16 05:22:13;;;;;;;36.88;14.20;;;;;;;-145.69;100.00;71147.69;5074632;28;20203;-75
2022/09/16 05:24:40;;;;;;;32.63;14.30;;;;;;;-145.69;100.00;71147.69;5074244;28;20195;-75
2022/09/16 05:27:06;;;;;;;56.50;16.75;;;;;;;-145.69;100.00;71153.66;5075307;28;20195;-76
2022/09/16 05:29:33;;;;;;;40.03;15.53;;;;;;;-145.69;100.00;71159.63;5074142;28;20199;-75
2022/09/16 05:31:59;;;;;;;35.95;14.73;;;;;;;-145.69;100.00;71147.69;5074255;28;20202;-75
2022/09/16 05:34:27;;;;;;;32.75;15.00;;;;;;;-145.69;100.00;71141.72;5074065;28;20202;-75
2022/09/16 05:36:54;;;;;;;95.00;34.30;;;;;;;-145.69;100.00;71137.75;5075275;28;20692;-75
2022/09/16 05:39:21;;;;;;;56.88;20.55;;;;;;;-145.69;100.00;71143.72;5094215;28;20202;-75
2022/09/16 05:41:49;;;;;;;44.78;17.70;;;;;;;-145.69;100.00;71143.72;5093985;28;20186;-76
2022/09/16 05:44:15;;;;;;;41.03;15.43;;;;;;;-145.69;100.00;71143.72;5094278;28;20545;-76
2022/09/16 05:46:42;;;;;;;34.72;13.98;;;;;;;-145.69;100.00;71139.75;5094312;28;20206;-75
2022/09/16 05:49:10;;;;;;;58.67;22.40;;;;;;;-145.69;100.00;71133.78;5089266;28;20818;-75
2022/09/16 05:51:40;;;;;;;49.30;19.35;;;;;;;-145.69;100.00;71141.72;5073415;28;20665;-75
2022/09/16 05:54:06;;;;;;;41.10;16.65;;;;;;;-145.69;100.00;71139.75;5073575;28;20752;-75
2022/09/16 05:56:33;;;;;;;48.47;16.58;;;;;;;-145.69;100.00;71135.75;5073689;28;20237;-74
2022/09/16 05:59:00;;;;;;;37.20;15.47;;;;;;;-145.69;100.00;71133.78;5073926;28;20206;-74
2022/09/16 06:01:29;;;;;;;158.07;53.97;;;;;;;-145.69;100.00;71131.78;5078894;28;20226;-75
2022/09/16 06:03:56;;;;;;;77.40;27.92;;;;;;;-145.69;100.00;71121.84;5093685;28;20224;-74
2022/09/16 06:06:24;;;;;;;66.97;27.73;;;;;;;-145.69;100.00;71123.81;5093780;28;20305;-74
2022/09/16 06:08:53;;;;;;;51.90;19.40;;;;;;;-145.69;100.00;71109.91;5093794;28;20673;-74
2022/09/16 06:11:20;;;;;;;42.45;16.33;;;;;;;-145.69;100.00;71093.97;5093519;28;20202;-74
2022/09/16 06:13:47;;;;;;;44.42;17.08;;;;;;;-145.69;100.00;71088.00;5084650;28;20222;-74
2022/09/16 06:16:14;;;;;;;64.57;20.42;;;;;;;-145.69;100.00;71095.97;5073464;28;20285;-76
2022/09/16 06:18:40;;;;;;;44.60;18.45;;;;;;;-145.69;100.00;71095.97;5073028;28;20649;-76
2022/09/16 06:21:10;;;;;;;44.45;16.63;;;;;;;-145.69;100.00;71097.97;5072978;28;20233;-76
2022/09/16 06:23:38;;;;;;;38.03;17.27;;;;;;;-145.69;100.00;71095.97;5073133;28;20209;-75
2022/09/16 06:26:08;;;;;;;40.80;15.85;;;;;;;-145.69;100.00;71074.09;5082122;28;20194;-75
2022/09/16 06:28:35;;;;;;;36.97;16.23;;;;;;;-145.69;100.00;71066.13;5092914;28;20208;-75
2022/09/16 06:31:04;;;;;;;39.15;15.68;;;;;;;-145.69;100.00;71056.16;5093541;28;20194;-75
2022/09/16 06:33:30;;;;;;;42.97;16.67;;;;;;;-145.69;100.00;71060.16;5093456;28;20224;-75
2022/09/16 06:35:57;;;;;;;44.05;15.18;;;;;;;-145.69;100.00;71068.13;5092713;28;20201;-75
2022/09/16 06:38:24;;;;;;;40.30;15.93;;;;;;;-145.69;100.00;71070.09;5079046;28;20202;-75
2022/09/16 06:40:50;;;;;;;46.75;16.58;;;;;;;-145.69;100.00;71064.13;5073045;28;20257;-75
2022/09/16 06:43:18;;;;;;;31.70;13.85;;;;;;;-145.69;100.00;71058.16;5073120;28;20207;-75
2022/09/16 06:45:44;;;;;;;44.92;19.10;;;;;;;-145.69;100.00;71060.16;5055762;28;20199;-75
2022/09/16 06:48:11;;;;;;;36.28;15.35;;;;;;;-145.69;100.00;71056.16;5052971;28;20201;-75
2022/09/16 06:50:37;;;;;;;39.10;15.75;;;;;;;-145.69;100.00;71050.22;5083520;28;20226;-75
2022/09/16 06:53:04;;;;;;;38.95;16.77;;;;;;;-145.69;100.00;71056.16;5093189;28;20190;-75
2022/09/16 06:55:30;;;;;;;49.55;17.42;;;;;;;-145.69;100.00;71052.19;5092609;28;20205;-75
2022/09/16 06:57:57;;;;;;;51.72;18.90;;;;;;;-145.69;100.00;71066.13;5093171;28;20663;-75
2022/09/16 07:00:24;;;;;;;35.50;15.48;;;;;;;-145.69;100.00;71052.19;5092802;28;20684;-75
2022/09/16 07:02:51;;;;;;;53.10;20.15;;;;;;;-145.69;100.00;71058.16;5077619;28;20191;-75
2022/09/16 07:05:17;;;;;;;49.38;18.95;;;;;;;-145.69;100.00;71048.22;5072265;28;20203;-75
2022/09/16 07:07:44;;;;;;;49.15;20.40;;;;;;;-145.69;100.00;71064.13;5072696;28;20195;-75
2022/09/16 07:10:10;;;;;;;50.13;18.38;;;;;;;-145.69;100.00;71068.13;5072917;28;20304;-74
2022/09/16 07:12:37;;;;;;;53.95;20.42;;;;;;;-145.69;100.00;71060.16;5072301;28;20685;-75
2022/09/16 07:15:03;;;;;;;47.83;20.42;;;;;;;-145.69;100.00;71066.13;5087596;28;20190;-75
2022/09/16 07:17:31;;;;;;;57.42;20.80;;;;;;;-145.69;100.00;71068.13;5092784;28;20198;-75
2022/09/16 07:19:58;;;;;;;51.35;22.38;;;;;;;-145.69;100.00;71062.13;5092806;28;20222;-74
2022/09/16 07:22:24;;;;;;;59.28;23.92;;;;;;;-145.69;100.00;71076.06;5092669;28;20202;-74
2022/09/16 07:24:50;;;;;;;57.70;23.75;;;;;;;-145.69;100.00;71070.09;5092639;28;20206;-76
2022/09/16 07:27:17;;;;;;;76.40;27.58;;;;;;;-145.69;100.00;71072.09;5073987;28;20198;-74
2022/09/16 07:29:43;;;;;;;64.07;25.60;;;;;;;-145.69;100.00;71054.19;5072417;28;20202;-74
2022/09/16 07:32:10;;;;;;;67.40;25.90;;;;;;;-145.69;100.00;71052.19;5072231;28;20616;-74
2022/09/16 07:34:38;;;;;;;67.90;26.98;;;;;;;-145.69;100.00;71056.16;5072226;28;20699;-74
2022/09/16 07:37:04;;;;;;;62.75;24.73;;;;;;;-145.69;100.00;71044.22;5072481;28;20194;-74
2022/09/16 07:39:31;;;;;;;63.97;24.00;;;;;;;-145.69;100.00;71056.16;5089898;28;20557;-75
2022/09/16 07:41:57;;;;;;;57.87;23.37;;;;;;;-145.69;100.00;71052.19;5092453;28;20232;-75
2022/09/16 07:44:24;;;;;;;50.05;22.67;;;;;;;-145.69;100.00;71052.19;5092343;28;20198;-74
2022/09/16 07:46:50;;;;;;;52.60;22.92;;;;;;;-145.69;100.00;71052.19;5092483;28;20259;-75
2022/09/16 07:49:17;;;;;;;46.03;21.05;;;;;;;-145.69;100.00;71040.25;5093744;28;20236;-75
2022/09/16 07:51:45;;;;;;;51.33;22.88;;;;;;;-145.69;100.00;71034.28;5096040;28;20656;-75
2022/09/16 07:54:14;;;;;;;38.92;22.27;;;;;;;-145.69;100.00;71024.34;5095266;28;20435;-74
2022/09/16 07:56:42;;;;;;;36.50;17.55;;;;;;;-145.69;100.00;71012.41;5096019;28;20198;-74
2022/09/16 07:59:12;;;;;;;38.05;19.17;;;;;;;-145.69;100.00;71018.38;5096048;28;20198;-74
2022/09/16 08:01:39;;;;;;;40.50;19.10;;;;;;;-145.69;100.00;71028.31;5093465;28;20221;-74
2022/09/16 08:04:05;;;;;;;44.45;19.08;;;;;;;-145.69;100.00;71036.28;5075850;28;20195;-75
2022/09/16 08:06:32;;;;;;;52.65;22.27;;;;;;;-145.69;100.00;71044.22;5078076;28;20195;-74
2022/09/16 08:09:01;;;;;;;38.47;19.40;;;;;;;-145.69;100.00;71044.22;5075841;28;20209;-74
2022/09/16 08:11:31;;;;;;;37.22;18.65;;;;;;;-145.69;100.00;71030.31;5075655;28;20206;-76
2022/09/16 08:13:59;;;;;;;22.10;10.27;;;;;;;-145.69;100.00;71076.06;5075725;28;20282;-77
2022/09/16 08:16:26;;;;;;;21.47;12.27;;;;;;;-145.69;100.00;71088.00;5088806;28;20194;-75
2022/09/16 08:18:55;;;;;;;22.30;9.83;;;;;;;-145.69;100.00;71101.94;5095803;28;20202;-76
2022/09/16 08:21:24;;;;;;;18.90;6.07;;;;;;;-145.69;100.00;71123.81;5095878;28;20233;-77
2022/09/16 08:23:51;;;;;;;4.47;2.97;;;;;;;-145.69;100.00;71129.78;5096029;28;20194;-76
2022/09/16 08:26:20;;;;;;;6.63;3.13;;;;;;;-145.69;100.00;71139.75;5095809;28;20222;-76
2022/09/16 08:28:48;;;;;;;2.87;2.00;;;;;;;-145.69;100.00;71187.50;5060378;28;20353;-77
2022/09/16 08:31:15;;;;;;;1.70;1.38;;;;;;;-145.69;100.00;71207.38;5054589;28;20459;-75
2022/09/16 08:33:43;;;;;;;1.33;1.20;;;;;;;-145.69;100.00;71263.09;5055158;28;20199;-78
2022/09/16 08:36:13;;;;;;;2.20;1.40;;;;;;;-145.69;100.00;71294.94;5055683;28;20204;-80
2022/09/16 08:38:41;;;;;;;3.00;1.83;;;;;;;-145.69;100.00;71336.72;5055412;28;20231;-74
2022/09/16 08:41:22;;;;;;;4.87;2.20;;;;;;;-145.69;100.00;71344.69;5082567;28;20237;-77
2022/09/16 08:43:58;;;;;;;5.07;3.00;;;;;;;-145.69;100.00;71372.53;5075423;28;20290;-78
2022/09/16 08:46:33;;;;;;;4.20;2.67;;;;;;;-145.69;100.00;71404.38;5074953;28;20661;-76
2022/09/16 08:49:06;;;;;;;8.53;3.47;;;;;;;-145.69;100.00;71418.31;5075121;28;20238;-76
2022/09/16 08:51:33;;;;;;;7.27;3.57;;;;;;;-145.69;100.00;71414.34;5075117;28;20205;-78
2022/09/16 08:54:02;;;;;;;11.37;3.47;;;;;;;-145.69;100.00;71392.44;5072917;28;20210;-76
2022/09/16 08:56:35;;;;;;;5.67;3.97;;;;;;;-145.69;100.00;71392.44;5075415;28;20309;-80
2022/09/16 08:59:05;;;;;;;10.17;3.67;;;;;;;-145.69;100.00;71386.47;5074634;28;20688;-76
2022/09/16 09:01:36;;;;;;;6.63;3.23;;;;;;;-145.69;100.00;71356.63;5074611;28;20230;-76
2022/09/16 09:04:03;;;;;;;5.50;2.60;;;;;;;-145.69;100.00;71354.63;5079793;28;20552;-76
2022/09/16 09:06:47;;;;;;;4.37;2.70;;;;;;;-145.69;100.00;71340.72;5094879;28;20221;-76
2022/09/16 09:09:37;;;;;;;3.13;2.00;;;;;;;-145.69;100.00;71332.75;5095023;28;20198;-76
2022/09/16 09:12:10;;;;;;;4.50;2.17;;;;;;;-145.69;100.00;71306.88;5094630;28;20206;-76
2022/09/16 09:14:50;;;;;;;3.83;1.80;;;;;;;-145.69;100.00;71316.84;5094828;28;20645;-75
2022/09/16 09:17:25;;;;;;;3.20;2.10;;;;;;;-145.69;100.00;71318.81;5081345;28;20210;-76
2022/09/16 09:20:04;;;;;;;6.13;1.93;;;;;;;-145.69;100.00;71336.72;5074623;28;20561;-76
2022/09/16 09:22:47;;;;;;;2.13;1.70;;;;;;;-145.69;100.00;71350.66;5074071;28;20570;-76
2022/09/16 09:25:26;;;;;;;7.70;2.50;;;;;;;-145.69;100.00;71342.69;5074304;28;20202;-76
2022/09/16 09:28:05;;;;;;;2.33;2.00;;;;;;;-145.69;100.00;71332.75;5074333;28;20233;-76
2022/09/16 09:30:35;;;;;;;5.30;2.57;;;;;;;-145.69;100.00;71294.94;5093483;28;20201;-76
2022/09/16 09:33:21;;;;;;;3.27;1.97;;;;;;;-145.69;100.00;71304.91;5094439;28;20240;-76
2022/09/16 09:36:01;;;;;;;2.93;2.10;;;;;;;-145.69;100.00;71288.97;5094360;28;20205;-76
2022/09/16 09:38:55;;;;;;;4.83;2.30;;;;;;;-145.69;100.00;71259.13;5094368;28;20224;-76
2022/09/16 09:41:27;;;;;;;2.20;1.80;;;;;;;-145.69;100.00;71253.16;5083282;28;20306;-76
2022/09/16 09:44:01;;;;;;;3.80;2.17;;;;;;;-145.69;100.00;71209.38;5073862;28;20283;-76
2022/09/16 09:46:38;;;;;;;3.57;1.90;;;;;;;-145.69;100.00;71185.50;5073644;28;20210;-74
2022/09/16 09:49:26;;;;;;;3.40;1.42;;;;;;;-145.69;100.00;71187.50;5073554;28;20352;-75
2022/09/16 09:51:58;;;;;;;2.60;2.17;;;;;;;-145.69;100.00;71173.56;5073675;28;20198;-74
2022/09/16 09:54:28;;;;;;;2.58;2.08;;;;;;;-145.69;100.00;71145.72;5073460;28;20198;-74
2022/09/16 09:57:00;;;;;;;9.40;3.72;;;;;;;-145.69;100.00;71159.63;5067179;28;20268;-75
2022/09/16 09:59:35;;;;;;;5.00;2.50;;;;;;;-145.69;100.00;71193.47;5073238;28;20282;-74
2022/09/16 10:02:09;;;;;;;2.92;2.17;;;;;;;-145.69;100.00;71211.38;5073733;28;20627;-74
2022/09/16 10:04:38;;;;;;;4.28;2.30;;;;;;;-145.69;100.00;71143.72;5073654;28;20549;-74
2022/09/16 10:07:07;;;;;;;2.38;2.00;;;;;;;-145.69;100.00;71135.75;5073657;28;20203;-75
2022/09/16 10:09:36;;;;;;;3.00;2.28;;;;;;;-145.69;100.00;71139.75;5073648;28;20285;-74
2022/09/16 10:12:04;;;;;;;4.10;2.85;;;;;;;-145.69;100.00;71133.78;5072845;28;20210;-74
2022/09/16 10:14:37;;;;;;;15.50;7.20;;;;;;;-145.69;100.00;71123.81;5073498;28;20538;-76
2022/09/16 10:17:06;;;;;;;8.50;5.30;;;;;;;-145.69;100.00;71086.03;5077725;28;20194;-75
2022/09/16 10:19:38;;;;;;;6.88;2.40;;;;;;;-145.69;100.00;71099.94;5093427;28;20649;-74
2022/09/16 10:22:10;;;;;;;4.88;2.28;;;;;;;-145.69;100.00;71072.09;5093531;28;20226;-75
2022/09/16 10:24:40;;;;;;;3.33;2.60;;;;;;;-145.69;100.00;71103.94;5093185;28;20213;-75
2022/09/16 10:27:19;;;;;;;4.50;2.95;;;;;;;-145.69;100.00;71149.69;5093331;28;20202;-75
2022/09/16 10:29:47;;;;;;;4.55;3.58;;;;;;;-145.69;100.00;71163.63;5084479;28;20209;-75
2022/09/16 10:32:18;;;;;;;3.55;2.70;;;;;;;-145.69;100.00;71167.59;5073381;28;20221;-75
2022/09/16 10:34:46;;;;;;;3.90;2.70;;;;;;;-145.69;100.00;71147.69;5073173;28;20560;-75
2022/09/16 10:37:18;;;;;;;4.70;3.35;;;;;;;-145.69;100.00;71165.59;5072669;28;20205;-75
2022/09/16 10:39:51;;;;;;;4.60;3.08;;;;;;;-145.69;100.00;71163.63;5072952;28;20218;-75
2022/09/16 10:42:20;;;;;;;4.70;3.00;;;;;;;-145.69;100.00;71147.69;5084306;28;20250;-76
2022/09/16 10:44:51;;;;;;;4.63;3.38;;;;;;;-145.69;100.00;71185.50;5093172;28;20194;-75
2022/09/16 10:47:21;;;;;;;3.50;3.20;;;;;;;-145.69;100.00;71207.38;5092784;28;20561;-75
2022/09/16 10:49:50;;;;;;;5.65;3.53;;;;;;;-145.69;100.00;71217.34;5093004;28;20253;-75
2022/09/16 10:52:18;;;;;;;4.38;3.10;;;;;;;-145.69;100.00;71225.31;5092812;28;20568;-75
2022/09/16 10:54:45;;;;;;;4.13;3.23;;;;;;;-145.69;100.00;71231.28;5079609;28;20191;-76
2022/09/16 10:57:23;;;;;;;8.63;4.30;;;;;;;-145.69;100.00;71245.19;5072861;28;20202;-76
2022/09/16 10:59:59;;;;;;;8.03;5.43;;;;;;;-145.69;100.00;71227.28;5063206;28;20221;-75
2022/09/16 11:02:43;;;;;;;7.37;5.20;;;;;;;-145.69;100.00;71191.47;5060102;28;20225;-76
2022/09/16 11:05:17;;;;;;;7.00;4.45;;;;;;;-145.69;100.00;71175.56;5059493;28;20222;-76
2022/09/16 11:07:52;;;;;;;6.90;4.80;;;;;;;-145.69;100.00;71191.47;5061213;28;20569;-76
2022/09/16 11:10:25;;;;;;;7.15;4.65;;;;;;;-145.69;100.00;71181.53;5052536;28;20657;-75